sensor_id;sensor_type;location;lat;lon;timestamp;P1;durP1;ratioP1;P2;durP2;ratioP2
54947;SDS011;41113;41.882;12.530;2023-04-25T00:00:03;21.27;;;5.88;;
54947;SDS011;41113;41.882;12.530;2023-04-25T00:02:31;21.10;;;5.05;;
54947;SDS011;41113;41.882;12.530;2023-04-25T00:04:59;21.42;;;6.78;;
54947;SDS011;41113;41.882;12.530;2023-04-25T00:07:26;21.80;;;5.85;;
54947;SDS011;41113;41.882;12.530;2023-04-25T00:09:53;20.20;;;5.35;;
54947;SDS011;41113;41.882;12.530;2023-04-25T00:12:18;24.92;;;6.75;;
54947;SDS011;41113;41.882;12.530;2023-04-25T00:14:44;23.88;;;6.13;;
54947;SDS011;41113;41.882;12.530;2023-04-25T00:17:10;23.20;;;5.22;;
54947;SDS011;41113;41.882;12.530;2023-04-25T00:19:36;23.67;;;5.63;;
54947;SDS011;41113;41.882;12.530;2023-04-25T00:22:02;24.98;;;6.78;;
54947;SDS011;41113;41.882;12.530;2023-04-25T00:24:28;27.88;;;6.70;;
54947;SDS011;41113;41.882;12.530;2023-04-25T00:26:53;19.52;;;4.90;;
54947;SDS011;41113;41.882;12.530;2023-04-25T00:29:19;21.98;;;5.97;;
54947;SDS011;41113;41.882;12.530;2023-04-25T00:31:44;24.95;;;5.88;;
54947;SDS011;41113;41.882;12.530;2023-04-25T00:34:10;24.02;;;5.53;;
54947;SDS011;41113;41.882;12.530;2023-04-25T00:36:35;25.80;;;6.75;;
54947;SDS011;41113;41.882;12.530;2023-04-25T00:39:01;27.50;;;6.78;;
54947;SDS011;41113;41.882;12.530;2023-04-25T00:41:26;21.73;;;5.85;;
54947;SDS011;41113;41.882;12.530;2023-04-25T00:43:52;19.15;;;5.10;;
54947;SDS011;41113;41.882;12.530;2023-04-25T00:46:19;23.13;;;5.43;;
54947;SDS011;41113;41.882;12.530;2023-04-25T00:48:44;20.08;;;5.43;;
54947;SDS011;41113;41.882;12.530;2023-04-25T00:51:10;26.77;;;6.30;;
54947;SDS011;41113;41.882;12.530;2023-04-25T00:53:40;21.77;;;5.75;;
54947;SDS011;41113;41.882;12.530;2023-04-25T00:56:06;16.77;;;4.72;;
54947;SDS011;41113;41.882;12.530;2023-04-25T00:58:31;23.10;;;5.63;;
54947;SDS011;41113;41.882;12.530;2023-04-25T01:00:57;19.73;;;5.30;;
54947;SDS011;41113;41.882;12.530;2023-04-25T01:03:22;20.63;;;4.50;;
54947;SDS011;41113;41.882;12.530;2023-04-25T01:05:49;15.27;;;4.38;;
54947;SDS011;41113;41.882;12.530;2023-04-25T01:08:15;24.63;;;5.80;;
54947;SDS011;41113;41.882;12.530;2023-04-25T01:10:41;18.13;;;4.28;;
54947;SDS011;41113;41.882;12.530;2023-04-25T01:13:06;17.92;;;5.18;;
54947;SDS011;41113;41.882;12.530;2023-04-25T01:15:32;24.55;;;6.28;;
54947;SDS011;41113;41.882;12.530;2023-04-25T01:17:58;14.95;;;4.57;;
54947;SDS011;41113;41.882;12.530;2023-04-25T01:20:25;15.32;;;5.28;;
54947;SDS011;41113;41.882;12.530;2023-04-25T01:22:53;18.77;;;4.82;;
54947;SDS011;41113;41.882;12.530;2023-04-25T01:25:21;18.75;;;4.38;;
54947;SDS011;41113;41.882;12.530;2023-04-25T01:27:47;16.38;;;4.40;;
54947;SDS011;41113;41.882;12.530;2023-04-25T01:30:13;16.02;;;4.50;;
54947;SDS011;41113;41.882;12.530;2023-04-25T01:32:38;19.75;;;4.60;;
54947;SDS011;41113;41.882;12.530;2023-04-25T01:35:06;16.30;;;4.43;;
54947;SDS011;41113;41.882;12.530;2023-04-25T01:37:37;20.58;;;5.30;;
54947;SDS011;41113;41.882;12.530;2023-04-25T01:40:05;17.88;;;5.00;;
54947;SDS011;41113;41.882;12.530;2023-04-25T01:42:32;15.88;;;5.35;;
54947;SDS011;41113;41.882;12.530;2023-04-25T01:44:59;17.90;;;5.18;;
54947;SDS011;41113;41.882;12.530;2023-04-25T01:47:25;15.60;;;5.50;;
54947;SDS011;41113;41.882;12.530;2023-04-25T01:49:50;17.58;;;5.30;;
54947;SDS011;41113;41.882;12.530;2023-04-25T01:52:16;17.75;;;5.95;;
54947;SDS011;41113;41.882;12.530;2023-04-25T01:54:41;22.42;;;6.90;;
54947;SDS011;41113;41.882;12.530;2023-04-25T01:57:09;19.15;;;6.03;;
54947;SDS011;41113;41.882;12.530;2023-04-25T01:59:36;16.80;;;5.53;;
54947;SDS011;41113;41.882;12.530;2023-04-25T02:02:02;19.80;;;6.30;;
54947;SDS011;41113;41.882;12.530;2023-04-25T02:04:29;18.27;;;6.32;;
54947;SDS011;41113;41.882;12.530;2023-04-25T02:06:55;18.05;;;6.13;;
54947;SDS011;41113;41.882;12.530;2023-04-25T02:09:20;16.40;;;6.93;;
54947;SDS011;41113;41.882;12.530;2023-04-25T02:11:46;25.63;;;8.55;;
54947;SDS011;41113;41.882;12.530;2023-04-25T02:14:11;18.90;;;7.88;;
54947;SDS011;41113;41.882;12.530;2023-04-25T02:16:37;20.63;;;7.32;;
54947;SDS011;41113;41.882;12.530;2023-04-25T02:19:03;18.95;;;7.20;;
54947;SDS011;41113;41.882;12.530;2023-04-25T02:21:29;22.85;;;7.57;;
54947;SDS011;41113;41.882;12.530;2023-04-25T02:23:55;17.35;;;6.78;;
54947;SDS011;41113;41.882;12.530;2023-04-25T02:26:21;19.05;;;7.78;;
54947;SDS011;41113;41.882;12.530;2023-04-25T02:28:46;20.13;;;8.23;;
54947;SDS011;41113;41.882;12.530;2023-04-25T02:31:13;20.40;;;8.27;;
54947;SDS011;41113;41.882;12.530;2023-04-25T02:33:38;23.45;;;7.95;;
54947;SDS011;41113;41.882;12.530;2023-04-25T02:36:03;20.65;;;8.20;;
54947;SDS011;41113;41.882;12.530;2023-04-25T02:38:29;24.40;;;8.20;;
54947;SDS011;41113;41.882;12.530;2023-04-25T02:40:54;19.30;;;7.68;;
54947;SDS011;41113;41.882;12.530;2023-04-25T02:43:20;25.13;;;7.82;;
54947;SDS011;41113;41.882;12.530;2023-04-25T02:45:45;20.67;;;6.78;;
54947;SDS011;41113;41.882;12.530;2023-04-25T02:48:11;18.90;;;6.47;;
54947;SDS011;41113;41.882;12.530;2023-04-25T02:50:36;16.77;;;6.45;;
54947;SDS011;41113;41.882;12.530;2023-04-25T02:53:01;21.88;;;6.40;;
54947;SDS011;41113;41.882;12.530;2023-04-25T02:55:27;23.73;;;7.28;;
54947;SDS011;41113;41.882;12.530;2023-04-25T02:57:52;24.23;;;6.28;;
54947;SDS011;41113;41.882;12.530;2023-04-25T03:00:20;30.00;;;6.53;;
54947;SDS011;41113;41.882;12.530;2023-04-25T03:02:46;22.70;;;6.15;;
54947;SDS011;41113;41.882;12.530;2023-04-25T03:05:11;25.05;;;6.40;;
54947;SDS011;41113;41.882;12.530;2023-04-25T03:07:36;22.52;;;6.38;;
54947;SDS011;41113;41.882;12.530;2023-04-25T03:10:04;23.80;;;5.88;;
54947;SDS011;41113;41.882;12.530;2023-04-25T03:12:31;23.00;;;5.60;;
54947;SDS011;41113;41.882;12.530;2023-04-25T03:14:56;18.77;;;5.03;;
54947;SDS011;41113;41.882;12.530;2023-04-25T03:17:21;20.13;;;4.68;;
54947;SDS011;41113;41.882;12.530;2023-04-25T03:19:47;22.58;;;5.30;;
54947;SDS011;41113;41.882;12.530;2023-04-25T03:22:12;26.02;;;5.95;;
54947;SDS011;41113;41.882;12.530;2023-04-25T03:24:38;23.42;;;6.35;;
54947;SDS011;41113;41.882;12.530;2023-04-25T03:27:03;22.15;;;5.78;;
54947;SDS011;41113;41.882;12.530;2023-04-25T03:29:29;29.67;;;6.90;;
54947;SDS011;41113;41.882;12.530;2023-04-25T03:31:54;22.08;;;5.75;;
54947;SDS011;41113;41.882;12.530;2023-04-25T03:34:20;25.75;;;5.80;;
54947;SDS011;41113;41.882;12.530;2023-04-25T03:36:46;22.95;;;6.90;;
54947;SDS011;41113;41.882;12.530;2023-04-25T03:39:12;16.52;;;5.53;;
54947;SDS011;41113;41.882;12.530;2023-04-25T03:41:37;23.23;;;5.53;;
54947;SDS011;41113;41.882;12.530;2023-04-25T03:44:03;21.70;;;5.63;;
54947;SDS011;41113;41.882;12.530;2023-04-25T03:46:28;24.67;;;6.75;;
54947;SDS011;41113;41.882;12.530;2023-04-25T03:48:53;28.10;;;6.63;;
54947;SDS011;41113;41.882;12.530;2023-04-25T03:51:19;20.48;;;6.70;;
54947;SDS011;41113;41.882;12.530;2023-04-25T03:53:44;26.17;;;8.20;;
54947;SDS011;41113;41.882;12.530;2023-04-25T03:56:09;27.65;;;8.00;;
54947;SDS011;41113;41.882;12.530;2023-04-25T03:58:35;25.25;;;8.20;;
54947;SDS011;41113;41.882;12.530;2023-04-25T04:01:00;25.73;;;7.88;;
54947;SDS011;41113;41.882;12.530;2023-04-25T04:03:28;25.83;;;8.50;;
54947;SDS011;41113;41.882;12.530;2023-04-25T04:05:53;17.65;;;7.63;;
54947;SDS011;41113;41.882;12.530;2023-04-25T04:08:18;27.45;;;8.25;;
54947;SDS011;41113;41.882;12.530;2023-04-25T04:10:44;24.88;;;7.63;;
54947;SDS011;41113;41.882;12.530;2023-04-25T04:13:09;32.35;;;9.45;;
54947;SDS011;41113;41.882;12.530;2023-04-25T04:15:35;25.98;;;8.48;;
54947;SDS011;41113;41.882;12.530;2023-04-25T04:18:00;29.15;;;9.15;;
54947;SDS011;41113;41.882;12.530;2023-04-25T04:20:28;22.60;;;8.23;;
54947;SDS011;41113;41.882;12.530;2023-04-25T04:22:55;29.85;;;8.68;;
54947;SDS011;41113;41.882;12.530;2023-04-25T04:25:20;33.33;;;9.90;;
54947;SDS011;41113;41.882;12.530;2023-04-25T04:27:45;23.55;;;8.82;;
54947;SDS011;41113;41.882;12.530;2023-04-25T04:30:11;25.15;;;7.53;;
54947;SDS011;41113;41.882;12.530;2023-04-25T04:32:37;20.77;;;7.07;;
54947;SDS011;41113;41.882;12.530;2023-04-25T04:35:02;18.92;;;6.03;;
54947;SDS011;41113;41.882;12.530;2023-04-25T04:37:29;19.63;;;7.00;;
54947;SDS011;41113;41.882;12.530;2023-04-25T04:39:55;23.02;;;6.57;;
54947;SDS011;41113;41.882;12.530;2023-04-25T04:42:20;22.38;;;7.75;;
54947;SDS011;41113;41.882;12.530;2023-04-25T04:44:46;20.35;;;6.78;;
54947;SDS011;41113;41.882;12.530;2023-04-25T04:47:11;25.55;;;7.70;;
54947;SDS011;41113;41.882;12.530;2023-04-25T04:49:37;23.45;;;7.15;;
54947;SDS011;41113;41.882;12.530;2023-04-25T04:52:03;24.95;;;7.57;;
54947;SDS011;41113;41.882;12.530;2023-04-25T04:54:28;20.58;;;6.65;;
54947;SDS011;41113;41.882;12.530;2023-04-25T04:56:53;19.67;;;6.30;;
54947;SDS011;41113;41.882;12.530;2023-04-25T04:59:19;19.23;;;6.57;;
54947;SDS011;41113;41.882;12.530;2023-04-25T05:01:46;19.92;;;5.75;;
54947;SDS011;41113;41.882;12.530;2023-04-25T05:04:11;23.33;;;7.40;;
54947;SDS011;41113;41.882;12.530;2023-04-25T05:06:37;17.23;;;6.05;;
54947;SDS011;41113;41.882;12.530;2023-04-25T05:09:02;13.82;;;4.90;;
54947;SDS011;41113;41.882;12.530;2023-04-25T05:11:28;21.80;;;6.68;;
54947;SDS011;41113;41.882;12.530;2023-04-25T05:13:53;23.13;;;6.38;;
54947;SDS011;41113;41.882;12.530;2023-04-25T05:16:19;21.58;;;6.53;;
54947;SDS011;41113;41.882;12.530;2023-04-25T05:18:45;21.55;;;6.57;;
54947;SDS011;41113;41.882;12.530;2023-04-25T05:21:11;18.83;;;5.72;;
54947;SDS011;41113;41.882;12.530;2023-04-25T05:23:36;22.05;;;6.22;;
54947;SDS011;41113;41.882;12.530;2023-04-25T05:26:01;17.85;;;6.10;;
54947;SDS011;41113;41.882;12.530;2023-04-25T05:28:27;20.85;;;6.30;;
54947;SDS011;41113;41.882;12.530;2023-04-25T05:30:52;19.17;;;6.85;;
54947;SDS011;41113;41.882;12.530;2023-04-25T05:33:18;19.80;;;5.68;;
54947;SDS011;41113;41.882;12.530;2023-04-25T05:35:43;17.85;;;6.75;;
54947;SDS011;41113;41.882;12.530;2023-04-25T05:38:09;15.75;;;6.30;;
54947;SDS011;41113;41.882;12.530;2023-04-25T05:40:35;19.77;;;6.35;;
54947;SDS011;41113;41.882;12.530;2023-04-25T05:43:00;26.27;;;6.20;;
54947;SDS011;41113;41.882;12.530;2023-04-25T05:45:26;22.88;;;6.57;;
54947;SDS011;41113;41.882;12.530;2023-04-25T05:47:51;22.80;;;6.22;;
54947;SDS011;41113;41.882;12.530;2023-04-25T05:50:16;20.75;;;6.72;;
54947;SDS011;41113;41.882;12.530;2023-04-25T05:52:42;22.85;;;6.55;;
54947;SDS011;41113;41.882;12.530;2023-04-25T05:55:07;17.80;;;4.90;;
54947;SDS011;41113;41.882;12.530;2023-04-25T05:57:33;15.30;;;4.78;;
54947;SDS011;41113;41.882;12.530;2023-04-25T05:59:58;13.45;;;4.63;;
54947;SDS011;41113;41.882;12.530;2023-04-25T06:02:24;14.63;;;4.47;;
54947;SDS011;41113;41.882;12.530;2023-04-25T06:04:50;19.77;;;5.30;;
54947;SDS011;41113;41.882;12.530;2023-04-25T06:07:16;14.57;;;4.78;;
54947;SDS011;41113;41.882;12.530;2023-04-25T06:09:41;20.98;;;5.57;;
54947;SDS011;41113;41.882;12.530;2023-04-25T06:12:08;17.33;;;4.88;;
54947;SDS011;41113;41.882;12.530;2023-04-25T06:14:33;14.40;;;4.45;;
54947;SDS011;41113;41.882;12.530;2023-04-25T06:16:59;14.35;;;4.95;;
54947;SDS011;41113;41.882;12.530;2023-04-25T06:19:31;17.17;;;5.47;;
54947;SDS011;41113;41.882;12.530;2023-04-25T06:21:56;16.58;;;5.03;;
54947;SDS011;41113;41.882;12.530;2023-04-25T06:24:22;17.63;;;4.68;;
54947;SDS011;41113;41.882;12.530;2023-04-25T06:26:47;16.65;;;4.85;;
54947;SDS011;41113;41.882;12.530;2023-04-25T06:29:12;16.27;;;5.13;;
54947;SDS011;41113;41.882;12.530;2023-04-25T06:31:38;20.58;;;5.28;;
54947;SDS011;41113;41.882;12.530;2023-04-25T06:34:03;21.05;;;5.38;;
54947;SDS011;41113;41.882;12.530;2023-04-25T06:36:28;17.80;;;4.32;;
54947;SDS011;41113;41.882;12.530;2023-04-25T06:38:55;15.68;;;4.97;;
54947;SDS011;41113;41.882;12.530;2023-04-25T06:41:20;17.70;;;5.28;;
54947;SDS011;41113;41.882;12.530;2023-04-25T06:43:46;18.08;;;5.25;;
54947;SDS011;41113;41.882;12.530;2023-04-25T06:46:11;17.75;;;4.65;;
54947;SDS011;41113;41.882;12.530;2023-04-25T06:48:37;16.85;;;4.28;;
54947;SDS011;41113;41.882;12.530;2023-04-25T06:51:02;20.92;;;5.57;;
54947;SDS011;41113;41.882;12.530;2023-04-25T06:53:28;19.40;;;4.70;;
54947;SDS011;41113;41.882;12.530;2023-04-25T06:55:53;21.83;;;5.43;;
54947;SDS011;41113;41.882;12.530;2023-04-25T06:58:19;20.80;;;5.38;;
54947;SDS011;41113;41.882;12.530;2023-04-25T07:00:44;21.23;;;5.25;;
54947;SDS011;41113;41.882;12.530;2023-04-25T07:03:09;20.73;;;5.22;;
54947;SDS011;41113;41.882;12.530;2023-04-25T07:05:35;14.10;;;4.13;;
54947;SDS011;41113;41.882;12.530;2023-04-25T07:08:00;14.70;;;4.55;;
54947;SDS011;41113;41.882;12.530;2023-04-25T07:10:26;13.18;;;4.00;;
54947;SDS011;41113;41.882;12.530;2023-04-25T07:12:51;17.50;;;4.38;;
54947;SDS011;41113;41.882;12.530;2023-04-25T07:15:16;15.55;;;4.20;;
54947;SDS011;41113;41.882;12.530;2023-04-25T07:17:42;21.52;;;4.68;;
54947;SDS011;41113;41.882;12.530;2023-04-25T07:20:07;18.33;;;4.40;;
54947;SDS011;41113;41.882;12.530;2023-04-25T07:22:34;19.55;;;5.03;;
54947;SDS011;41113;41.882;12.530;2023-04-25T07:25:00;16.38;;;3.40;;
54947;SDS011;41113;41.882;12.530;2023-04-25T07:27:25;11.77;;;3.20;;
54947;SDS011;41113;41.882;12.530;2023-04-25T07:29:50;14.15;;;3.60;;
54947;SDS011;41113;41.882;12.530;2023-04-25T07:32:16;16.88;;;4.20;;
54947;SDS011;41113;41.882;12.530;2023-04-25T07:34:41;18.80;;;4.18;;
54947;SDS011;41113;41.882;12.530;2023-04-25T07:37:07;17.48;;;3.63;;
54947;SDS011;41113;41.882;12.530;2023-04-25T07:39:32;19.27;;;3.38;;
54947;SDS011;41113;41.882;12.530;2023-04-25T07:41:58;15.70;;;3.30;;
54947;SDS011;41113;41.882;12.530;2023-04-25T07:44:23;13.55;;;4.18;;
54947;SDS011;41113;41.882;12.530;2023-04-25T07:46:49;20.98;;;4.28;;
54947;SDS011;41113;41.882;12.530;2023-04-25T07:49:14;16.48;;;4.25;;
54947;SDS011;41113;41.882;12.530;2023-04-25T07:51:40;19.38;;;3.60;;
54947;SDS011;41113;41.882;12.530;2023-04-25T07:54:08;14.90;;;3.25;;
54947;SDS011;41113;41.882;12.530;2023-04-25T07:56:33;15.05;;;3.75;;
54947;SDS011;41113;41.882;12.530;2023-04-25T07:58:59;13.10;;;3.53;;
54947;SDS011;41113;41.882;12.530;2023-04-25T08:01:25;16.48;;;4.13;;
54947;SDS011;41113;41.882;12.530;2023-04-25T08:03:51;20.10;;;5.22;;
54947;SDS011;41113;41.882;12.530;2023-04-25T08:06:17;15.82;;;3.85;;
54947;SDS011;41113;41.882;12.530;2023-04-25T08:08:42;21.10;;;4.03;;
54947;SDS011;41113;41.882;12.530;2023-04-25T08:11:08;15.48;;;3.42;;
54947;SDS011;41113;41.882;12.530;2023-04-25T08:13:33;16.83;;;3.65;;
54947;SDS011;41113;41.882;12.530;2023-04-25T08:15:59;16.88;;;4.30;;
54947;SDS011;41113;41.882;12.530;2023-04-25T08:18:24;17.88;;;3.70;;
54947;SDS011;41113;41.882;12.530;2023-04-25T08:20:49;16.90;;;4.05;;
54947;SDS011;41113;41.882;12.530;2023-04-25T08:23:15;14.63;;;3.53;;
54947;SDS011;41113;41.882;12.530;2023-04-25T08:25:40;17.05;;;4.43;;
54947;SDS011;41113;41.882;12.530;2023-04-25T08:28:06;14.63;;;3.30;;
54947;SDS011;41113;41.882;12.530;2023-04-25T08:30:31;17.15;;;3.65;;
54947;SDS011;41113;41.882;12.530;2023-04-25T08:32:56;16.77;;;3.42;;
54947;SDS011;41113;41.882;12.530;2023-04-25T08:35:22;16.48;;;3.70;;
54947;SDS011;41113;41.882;12.530;2023-04-25T08:37:48;13.80;;;3.72;;
54947;SDS011;41113;41.882;12.530;2023-04-25T08:40:14;19.73;;;4.88;;
54947;SDS011;41113;41.882;12.530;2023-04-25T08:42:41;15.27;;;3.35;;
54947;SDS011;41113;41.882;12.530;2023-04-25T08:45:08;16.20;;;3.75;;
54947;SDS011;41113;41.882;12.530;2023-04-25T08:47:34;18.70;;;4.07;;
54947;SDS011;41113;41.882;12.530;2023-04-25T08:50:00;14.23;;;3.15;;
54947;SDS011;41113;41.882;12.530;2023-04-25T08:52:28;18.00;;;3.50;;
54947;SDS011;41113;41.882;12.530;2023-04-25T08:54:57;18.25;;;3.25;;
54947;SDS011;41113;41.882;12.530;2023-04-25T08:57:25;12.55;;;3.40;;
54947;SDS011;41113;41.882;12.530;2023-04-25T08:59:51;17.00;;;3.35;;
54947;SDS011;41113;41.882;12.530;2023-04-25T09:02:17;14.35;;;3.55;;
54947;SDS011;41113;41.882;12.530;2023-04-25T09:04:45;21.45;;;4.15;;
54947;SDS011;41113;41.882;12.530;2023-04-25T09:07:11;16.27;;;3.60;;
54947;SDS011;41113;41.882;12.530;2023-04-25T09:09:36;17.08;;;3.60;;
54947;SDS011;41113;41.882;12.530;2023-04-25T09:12:02;15.27;;;3.63;;
54947;SDS011;41113;41.882;12.530;2023-04-25T09:14:27;15.02;;;3.35;;
54947;SDS011;41113;41.882;12.530;2023-04-25T09:19:26;16.85;;;4.78;;
54947;SDS011;41113;41.882;12.530;2023-04-25T09:21:53;14.15;;;3.92;;
54947;SDS011;41113;41.882;12.530;2023-04-25T09:24:29;11.30;;;2.90;;
54947;SDS011;41113;41.882;12.530;2023-04-25T09:26:58;19.67;;;4.03;;
54947;SDS011;41113;41.882;12.530;2023-04-25T09:29:33;14.48;;;3.58;;
54947;SDS011;41113;41.882;12.530;2023-04-25T09:32:19;11.93;;;2.78;;
54947;SDS011;41113;41.882;12.530;2023-04-25T09:34:47;15.32;;;3.50;;
54947;SDS011;41113;41.882;12.530;2023-04-25T09:37:17;14.15;;;3.03;;
54947;SDS011;41113;41.882;12.530;2023-04-25T09:39:52;16.23;;;3.90;;
54947;SDS011;41113;41.882;12.530;2023-04-25T09:42:24;15.73;;;3.65;;
54947;SDS011;41113;41.882;12.530;2023-04-25T09:44:54;12.68;;;2.63;;
54947;SDS011;41113;41.882;12.530;2023-04-25T09:47:22;13.98;;;2.80;;
54947;SDS011;41113;41.882;12.530;2023-04-25T09:49:49;15.68;;;2.80;;
54947;SDS011;41113;41.882;12.530;2023-04-25T09:52:16;11.38;;;2.78;;
54947;SDS011;41113;41.882;12.530;2023-04-25T09:54:43;16.35;;;3.50;;
54947;SDS011;41113;41.882;12.530;2023-04-25T09:57:11;13.25;;;3.65;;
54947;SDS011;41113;41.882;12.530;2023-04-25T09:59:48;15.27;;;3.35;;
54947;SDS011;41113;41.882;12.530;2023-04-25T10:02:17;12.75;;;2.80;;
54947;SDS011;41113;41.882;12.530;2023-04-25T10:04:47;12.27;;;2.80;;
54947;SDS011;41113;41.882;12.530;2023-04-25T10:07:13;16.23;;;4.03;;
54947;SDS011;41113;41.882;12.530;2023-04-25T10:09:39;15.02;;;3.40;;
54947;SDS011;41113;41.882;12.530;2023-04-25T10:12:06;12.63;;;3.40;;
54947;SDS011;41113;41.882;12.530;2023-04-25T10:14:33;11.73;;;2.67;;
54947;SDS011;41113;41.882;12.530;2023-04-25T10:16:59;13.88;;;3.17;;
54947;SDS011;41113;41.882;12.530;2023-04-25T10:19:26;10.80;;;2.70;;
54947;SDS011;41113;41.882;12.530;2023-04-25T10:21:54;10.13;;;2.70;;
54947;SDS011;41113;41.882;12.530;2023-04-25T10:24:29;14.43;;;2.85;;
54947;SDS011;41113;41.882;12.530;2023-04-25T10:26:55;7.97;;;2.45;;
54947;SDS011;41113;41.882;12.530;2023-04-25T10:29:23;11.23;;;2.72;;
54947;SDS011;41113;41.882;12.530;2023-04-25T10:31:49;9.93;;;3.10;;
54947;SDS011;41113;41.882;12.530;2023-04-25T10:34:15;13.38;;;2.90;;
54947;SDS011;41113;41.882;12.530;2023-04-25T10:36:41;8.95;;;2.65;;
54947;SDS011;41113;41.882;12.530;2023-04-25T10:39:07;10.48;;;2.60;;
54947;SDS011;41113;41.882;12.530;2023-04-25T10:41:46;11.98;;;2.75;;
54947;SDS011;41113;41.882;12.530;2023-04-25T10:44:13;10.48;;;2.70;;
54947;SDS011;41113;41.882;12.530;2023-04-25T10:46:38;12.95;;;3.00;;
54947;SDS011;41113;41.882;12.530;2023-04-25T10:49:04;14.73;;;3.42;;
54947;SDS011;41113;41.882;12.530;2023-04-25T10:51:32;12.50;;;2.58;;
54947;SDS011;41113;41.882;12.530;2023-04-25T10:56:29;10.23;;;2.10;;
54947;SDS011;41113;41.882;12.530;2023-04-25T10:59:04;9.93;;;2.70;;
54947;SDS011;41113;41.882;12.530;2023-04-25T11:01:38;11.57;;;2.72;;
54947;SDS011;41113;41.882;12.530;2023-04-25T11:04:21;9.98;;;2.55;;
54947;SDS011;41113;41.882;12.530;2023-04-25T11:10:03;15.98;;;2.97;;
54947;SDS011;41113;41.882;12.530;2023-04-25T11:12:30;14.93;;;3.33;;
54947;SDS011;41113;41.882;12.530;2023-04-25T11:15:03;14.95;;;3.00;;
54947;SDS011;41113;41.882;12.530;2023-04-25T11:17:30;12.55;;;3.33;;
54947;SDS011;41113;41.882;12.530;2023-04-25T11:19:56;12.90;;;3.17;;
54947;SDS011;41113;41.882;12.530;2023-04-25T11:22:22;12.48;;;3.13;;
54947;SDS011;41113;41.882;12.530;2023-04-25T11:24:48;16.45;;;3.15;;
54947;SDS011;41113;41.882;12.530;2023-04-25T11:27:13;13.68;;;3.15;;
54947;SDS011;41113;41.882;12.530;2023-04-25T11:29:40;11.98;;;2.85;;
54947;SDS011;41113;41.882;12.530;2023-04-25T11:32:06;13.20;;;3.55;;
54947;SDS011;41113;41.882;12.530;2023-04-25T11:34:31;15.23;;;2.72;;
54947;SDS011;41113;41.882;12.530;2023-04-25T11:36:58;14.30;;;3.83;;
54947;SDS011;41113;41.882;12.530;2023-04-25T11:39:24;12.48;;;3.08;;
54947;SDS011;41113;41.882;12.530;2023-04-25T11:41:51;12.85;;;2.92;;
54947;SDS011;41113;41.882;12.530;2023-04-25T11:44:17;11.57;;;2.90;;
54947;SDS011;41113;41.882;12.530;2023-04-25T11:46:44;16.05;;;3.15;;
54947;SDS011;41113;41.882;12.530;2023-04-25T11:49:10;14.85;;;3.63;;
54947;SDS011;41113;41.882;12.530;2023-04-25T11:51:45;12.98;;;3.17;;
54947;SDS011;41113;41.882;12.530;2023-04-25T11:54:12;15.90;;;3.80;;
54947;SDS011;41113;41.882;12.530;2023-04-25T11:56:42;17.75;;;3.58;;
54947;SDS011;41113;41.882;12.530;2023-04-25T11:59:08;10.52;;;2.72;;
54947;SDS011;41113;41.882;12.530;2023-04-25T12:01:36;12.38;;;3.25;;
54947;SDS011;41113;41.882;12.530;2023-04-25T12:06:38;13.95;;;3.75;;
54947;SDS011;41113;41.882;12.530;2023-04-25T12:09:06;11.48;;;3.33;;
54947;SDS011;41113;41.882;12.530;2023-04-25T12:14:09;13.57;;;3.20;;
54947;SDS011;41113;41.882;12.530;2023-04-25T12:16:45;14.65;;;3.65;;
54947;SDS011;41113;41.882;12.530;2023-04-25T12:19:15;12.10;;;3.15;;
54947;SDS011;41113;41.882;12.530;2023-04-25T12:21:42;15.13;;;3.28;;
54947;SDS011;41113;41.882;12.530;2023-04-25T12:24:26;15.52;;;3.65;;
54947;SDS011;41113;41.882;12.530;2023-04-25T12:27:00;14.05;;;3.92;;
54947;SDS011;41113;41.882;12.530;2023-04-25T12:29:30;15.07;;;3.05;;
54947;SDS011;41113;41.882;12.530;2023-04-25T12:31:59;15.70;;;3.78;;
54947;SDS011;41113;41.882;12.530;2023-04-25T12:34:27;19.15;;;4.22;;
54947;SDS011;41113;41.882;12.530;2023-04-25T12:36:53;16.33;;;4.22;;
54947;SDS011;41113;41.882;12.530;2023-04-25T12:41:46;10.90;;;3.17;;
54947;SDS011;41113;41.882;12.530;2023-04-25T12:44:12;14.50;;;3.20;;
54947;SDS011;41113;41.882;12.530;2023-04-25T12:46:38;11.50;;;3.05;;
54947;SDS011;41113;41.882;12.530;2023-04-25T12:49:05;12.50;;;3.00;;
54947;SDS011;41113;41.882;12.530;2023-04-25T12:51:32;12.60;;;3.53;;
54947;SDS011;41113;41.882;12.530;2023-04-25T12:53:58;13.27;;;3.17;;
54947;SDS011;41113;41.882;12.530;2023-04-25T12:56:25;13.90;;;4.63;;
54947;SDS011;41113;41.882;12.530;2023-04-25T12:58:51;13.65;;;4.38;;
54947;SDS011;41113;41.882;12.530;2023-04-25T13:01:17;63.78;;;30.80;;
54947;SDS011;41113;41.882;12.530;2023-04-25T13:03:42;86.95;;;41.22;;
54947;SDS011;41113;41.882;12.530;2023-04-25T13:06:08;71.80;;;35.05;;
54947;SDS011;41113;41.882;12.530;2023-04-25T13:08:33;44.75;;;22.05;;
54947;SDS011;41113;41.882;12.530;2023-04-25T13:11:00;26.83;;;11.57;;
54947;SDS011;41113;41.882;12.530;2023-04-25T13:13:25;22.10;;;8.80;;
54947;SDS011;41113;41.882;12.530;2023-04-25T13:15:52;18.58;;;6.90;;
54947;SDS011;41113;41.882;12.530;2023-04-25T13:18:18;14.73;;;5.55;;
54947;SDS011;41113;41.882;12.530;2023-04-25T13:20:44;13.13;;;5.05;;
54947;SDS011;41113;41.882;12.530;2023-04-25T13:23:11;13.90;;;4.95;;
54947;SDS011;41113;41.882;12.530;2023-04-25T13:25:36;14.65;;;4.70;;
54947;SDS011;41113;41.882;12.530;2023-04-25T13:28:02;14.20;;;3.80;;
54947;SDS011;41113;41.882;12.530;2023-04-25T13:30:27;12.63;;;4.03;;
54947;SDS011;41113;41.882;12.530;2023-04-25T13:32:56;12.20;;;3.38;;
54947;SDS011;41113;41.882;12.530;2023-04-25T13:35:22;9.90;;;3.22;;
54947;SDS011;41113;41.882;12.530;2023-04-25T13:37:47;11.13;;;3.17;;
54947;SDS011;41113;41.882;12.530;2023-04-25T13:40:14;15.00;;;3.08;;
54947;SDS011;41113;41.882;12.530;2023-04-25T13:42:40;12.93;;;3.28;;
54947;SDS011;41113;41.882;12.530;2023-04-25T13:45:06;10.43;;;2.88;;
54947;SDS011;41113;41.882;12.530;2023-04-25T13:47:32;15.15;;;3.13;;
54947;SDS011;41113;41.882;12.530;2023-04-25T13:49:57;12.00;;;4.05;;
54947;SDS011;41113;41.882;12.530;2023-04-25T13:52:23;11.40;;;3.05;;
54947;SDS011;41113;41.882;12.530;2023-04-25T13:54:52;9.73;;;2.67;;
54947;SDS011;41113;41.882;12.530;2023-04-25T13:57:17;12.68;;;2.80;;
54947;SDS011;41113;41.882;12.530;2023-04-25T13:59:43;12.75;;;2.85;;
54947;SDS011;41113;41.882;12.530;2023-04-25T14:02:08;10.10;;;2.90;;
54947;SDS011;41113;41.882;12.530;2023-04-25T14:04:33;11.93;;;3.00;;
54947;SDS011;41113;41.882;12.530;2023-04-25T14:06:59;13.57;;;3.03;;
54947;SDS011;41113;41.882;12.530;2023-04-25T14:09:24;10.65;;;2.50;;
54947;SDS011;41113;41.882;12.530;2023-04-25T14:11:53;9.75;;;2.47;;
54947;SDS011;41113;41.882;12.530;2023-04-25T14:14:21;8.80;;;2.30;;
54947;SDS011;41113;41.882;12.530;2023-04-25T14:16:47;10.15;;;2.35;;
54947;SDS011;41113;41.882;12.530;2023-04-25T14:19:13;11.25;;;2.72;;
54947;SDS011;41113;41.882;12.530;2023-04-25T14:21:39;11.40;;;2.67;;
54947;SDS011;41113;41.882;12.530;2023-04-25T14:24:05;8.52;;;2.15;;
54947;SDS011;41113;41.882;12.530;2023-04-25T14:26:31;13.93;;;3.80;;
54947;SDS011;41113;41.882;12.530;2023-04-25T14:28:58;12.45;;;3.05;;
54947;SDS011;41113;41.882;12.530;2023-04-25T14:31:23;11.18;;;2.70;;